Longueuil, Canada
Current Conditions -  °F | °C
As of 7:00 AM on Friday 31 Oct 2014 (Local Time) from CYHU Reporting Station
Broken Clouds Broken Clouds  
Wind Chill: 36°   Ceiling: 4100
Heat Index: 36°   Visibility: 9mi
Dew Point: 28°   Wind: 3mph
Humidity: 75%   Direction: 10°N
Pressure: 30.06"   Gusts: NA
Location:  45.54°N, 73.49°W
Report Text: CYHU 311100Z AUTO 01003KT 9SM BKN041 02/M02 A3006 RMK SLP179
Loading
Personal Weather Stations






























Interactive Weather Map New forecast layout! Learn more

10-Day Weather Forecast

Advertisements
Track Severe Weather on mobile